createdAt,value
2023-03-06T00:00:49.095Z,26.55
2023-03-06T00:05:51.211Z,27.63
2023-03-06T00:10:53.318Z,27.75
2023-03-06T00:15:57.984Z,27.42
2023-03-06T00:21:00.159Z,27.42
2023-03-06T00:26:02.904Z,27.75
2023-03-06T00:31:05.150Z,30.23
2023-03-06T00:36:08.105Z,31.15
2023-03-06T00:41:10.889Z,29.95
2023-03-06T00:46:13.157Z,29.60
2023-03-06T00:51:17.457Z,38.55
2023-03-06T00:56:20.162Z,34.85
2023-03-06T01:01:23.506Z,35.95
2023-03-06T01:06:26.283Z,36.40
2023-03-06T01:11:28.749Z,37.33
2023-03-06T01:16:31.295Z,31.77
2023-03-06T01:21:33.451Z,34.42
2023-03-06T01:26:35.982Z,28.23
2023-03-06T01:31:38.207Z,32.17
2023-03-06T01:36:40.465Z,36.10
2023-03-06T01:41:42.670Z,30.42
2023-03-06T01:46:45.596Z,31.95
2023-03-06T01:51:53.168Z,32.70
2023-03-06T02:01:58.877Z,31.75
2023-03-06T02:07:02.242Z,34.50
2023-03-06T02:12:08.094Z,36.55
2023-03-06T02:17:10.895Z,35.03
2023-03-06T02:22:14.415Z,36.63
2023-03-06T02:27:17.889Z,40.03
2023-03-06T02:32:20.163Z,35.70
2023-03-06T02:37:22.631Z,41.35
2023-03-06T02:42:26.084Z,35.55
2023-03-06T02:47:29.821Z,30.90
2023-03-06T02:52:32.402Z,38.92
2023-03-06T02:57:34.549Z,35.65
2023-03-06T03:02:37.141Z,36.47
2023-03-06T03:07:39.370Z,39.67
2023-03-06T03:12:43.090Z,38.90
2023-03-06T03:17:45.378Z,32.97
2023-03-06T03:22:48.459Z,33.90
2023-03-06T03:27:50.877Z,28.65
2023-03-06T03:32:53.211Z,36.17
2023-03-06T03:37:56.080Z,37.55
2023-03-06T03:42:58.371Z,32.13
2023-03-06T03:48:00.602Z,28.17
2023-03-06T03:53:03.262Z,37.28
2023-03-06T03:58:05.970Z,33.20
2023-03-06T04:03:09.258Z,30.58
2023-03-06T04:08:15.996Z,33.08
2023-03-06T04:13:22.251Z,31.10
2023-03-06T04:18:25.297Z,34.53
2023-03-06T04:23:30.419Z,31.17
2023-03-06T04:28:32.804Z,37.83
2023-03-06T04:33:35.241Z,37.65
2023-03-06T04:38:37.645Z,39.22
2023-03-06T04:43:41.018Z,36.00
2023-03-06T04:48:43.233Z,42.83
2023-03-06T04:53:45.510Z,44.50
2023-03-06T04:58:47.759Z,48.17
2023-03-06T05:03:52.510Z,42.83
2023-03-06T05:08:54.884Z,33.88
2023-03-06T05:13:57.074Z,42.42
2023-03-06T05:18:59.226Z,46.28
2023-03-06T05:24:01.282Z,43.60
2023-03-06T05:29:03.368Z,38.25
2023-03-06T05:34:05.491Z,40.95
2023-03-06T05:39:07.670Z,34.80
2023-03-06T05:44:09.792Z,34.40
2023-03-06T05:49:11.903Z,35.42
2023-03-06T05:54:14.166Z,40.92
2023-03-06T05:59:16.381Z,42.50
2023-03-06T06:04:18.552Z,49.40
2023-03-06T06:09:22.687Z,53.05
2023-03-06T06:14:25.116Z,45.60
2023-03-06T06:19:29.371Z,52.15
2023-03-06T06:24:32.142Z,43.85
2023-03-06T06:29:34.396Z,30.98
2023-03-06T06:34:36.673Z,29.98
2023-03-06T06:39:38.856Z,30.02
2023-03-06T06:44:41.049Z,32.80
2023-03-06T06:49:43.405Z,31.05
2023-03-06T06:54:45.950Z,28.77
2023-03-06T06:59:48.305Z,34.50
2023-03-06T07:05:03.035Z,30.10
2023-03-06T07:10:06.841Z,29.95
2023-03-06T07:15:09.232Z,24.70
2023-03-06T07:20:12.918Z,27.90
2023-03-06T07:25:15.092Z,32.42
2023-03-06T07:30:17.360Z,29.80
2023-03-06T07:35:20.824Z,33.22
2023-03-06T07:40:23.635Z,32.88
2023-03-06T07:45:25.771Z,43.78
2023-03-06T07:50:28.043Z,55.50
2023-03-06T07:55:30.098Z,61.17
2023-03-06T08:00:32.417Z,48.53
2023-03-06T08:05:34.522Z,41.08
2023-03-06T08:10:36.811Z,26.75
2023-03-06T08:15:38.923Z,25.67
2023-03-06T08:20:41.145Z,21.85
2023-03-06T08:25:43.248Z,25.65
2023-03-06T08:30:45.331Z,22.52
2023-03-06T08:35:47.663Z,24.90
2023-03-06T08:40:49.831Z,25.05
2023-03-06T08:45:53.133Z,27.77
2023-03-06T08:50:55.359Z,34.83
2023-03-06T08:55:57.447Z,30.48
2023-03-06T09:00:59.746Z,33.90
2023-03-06T09:06:01.933Z,29.00
2023-03-06T09:11:04.287Z,29.42
2023-03-06T09:16:07.244Z,29.70
2023-03-06T09:21:09.747Z,30.23
2023-03-06T09:26:12.697Z,27.10
2023-03-06T09:31:19.110Z,30.25
2023-03-06T09:36:22.215Z,27.42
2023-03-06T09:41:42.347Z,24.83
2023-03-06T09:46:47.599Z,29.90
2023-03-06T09:51:52.603Z,28.48
2023-03-06T09:56:54.722Z,32.90
2023-03-06T10:02:02.926Z,31.15
2023-03-06T10:07:10.715Z,26.02
2023-03-06T10:12:24.532Z,24.48
2023-03-06T10:17:30.560Z,27.80
2023-03-06T10:22:38.892Z,22.45
2023-03-06T10:27:51.669Z,23.98
2023-03-06T10:32:58.132Z,20.67
2023-03-06T10:38:16.031Z,22.60
2023-03-06T10:43:18.178Z,20.67
2023-03-06T10:48:22.036Z,21.83
2023-03-06T10:53:26.342Z,22.13
2023-03-06T10:58:32.804Z,18.75
2023-03-06T11:03:36.316Z,23.85
2023-03-06T11:08:39.220Z,18.33
2023-03-06T11:13:42.823Z,20.23
2023-03-06T11:18:55.623Z,20.02
2023-03-06T11:24:04.353Z,20.27
2023-03-06T11:29:07.152Z,16.45
2023-03-06T11:34:12.361Z,19.15
2023-03-06T11:39:31.559Z,17.13
2023-03-06T11:49:41.023Z,19.77
2023-03-06T11:54:43.158Z,14.52
2023-03-06T11:59:48.461Z,18.35
2023-03-06T12:05:09.108Z,13.88
2023-03-06T12:10:14.671Z,13.73
2023-03-06T12:15:21.420Z,16.83
2023-03-06T12:20:44.095Z,11.65
2023-03-06T12:25:54.036Z,15.88
2023-03-06T12:31:10.770Z,11.48
2023-03-06T12:36:15.151Z,8.82
2023-03-06T12:41:22.752Z,10.80
2023-03-06T12:46:26.986Z,12.57
2023-03-06T12:51:29.706Z,11.02
2023-03-06T12:56:33.101Z,12.13
2023-03-06T13:01:35.219Z,10.90
2023-03-06T13:06:56.273Z,6.78
2023-03-06T13:12:05.726Z,8.65
2023-03-06T13:17:23.129Z,6.03
2023-03-06T13:22:29.316Z,5.68
2023-03-06T13:27:50.747Z,6.22
2023-03-06T13:32:53.900Z,6.32
2023-03-06T13:37:56.626Z,8.32
2023-03-06T13:43:07.921Z,5.32
2023-03-06T13:48:43.059Z,7.10
2023-03-06T13:53:58.378Z,8.68
2023-03-06T13:59:39.164Z,12.68
2023-03-06T14:04:58.108Z,8.50
2023-03-06T14:10:15.672Z,10.50
2023-03-06T14:15:20.485Z,16.33
2023-03-06T14:20:26.659Z,8.30
2023-03-06T14:25:30.122Z,6.03
2023-03-06T14:30:32.309Z,4.32
2023-03-06T14:35:34.710Z,3.80
2023-03-06T14:40:41.263Z,7.10
2023-03-06T14:45:52.550Z,7.38
2023-03-06T14:50:56.143Z,8.00
2023-03-06T14:56:04.387Z,5.55
2023-03-06T15:01:08.834Z,10.95
2023-03-06T15:06:14.936Z,5.30
2023-03-06T15:11:17.040Z,4.95
2023-03-06T15:16:19.242Z,6.30
2023-03-06T15:21:22.662Z,6.18
2023-03-06T15:26:31.749Z,8.07
2023-03-06T15:31:34.687Z,4.25
2023-03-06T15:36:43.072Z,3.25
2023-03-06T15:41:45.291Z,3.13
2023-03-06T15:46:48.518Z,3.55
2023-03-06T15:51:52.130Z,6.18
2023-03-06T15:56:54.212Z,4.28
2023-03-06T16:01:56.316Z,3.97
2023-03-06T16:06:58.588Z,4.07
2023-03-06T16:12:00.722Z,6.05
2023-03-06T16:17:02.928Z,3.72
2023-03-06T16:22:05.082Z,5.68
2023-03-06T16:27:07.242Z,6.50
2023-03-06T16:32:12.607Z,3.40
2023-03-06T16:37:14.839Z,4.07
2023-03-06T16:42:17.967Z,3.75
2023-03-06T16:47:20.187Z,4.43
2023-03-06T16:52:22.331Z,3.03
2023-03-06T16:57:24.751Z,3.42
2023-03-06T17:02:26.922Z,3.97
2023-03-06T17:07:29.845Z,3.70
2023-03-06T17:12:31.938Z,3.90
2023-03-06T17:17:34.483Z,3.90
2023-03-06T17:22:37.172Z,3.40
2023-03-06T17:27:39.296Z,5.60
2023-03-06T17:32:41.567Z,5.60
2023-03-06T17:37:43.742Z,5.25
2023-03-06T17:42:45.871Z,3.75
2023-03-06T17:47:49.149Z,3.28
2023-03-06T17:52:51.439Z,3.20
2023-03-06T17:57:53.628Z,4.63
2023-03-06T18:02:55.772Z,3.75
2023-03-06T18:07:57.875Z,4.05
2023-03-06T18:13:00.453Z,5.13
2023-03-06T18:18:02.715Z,5.45
2023-03-06T18:23:04.836Z,4.30
2023-03-06T18:28:07.352Z,4.57
2023-03-06T18:33:11.024Z,5.50
2023-03-06T18:38:13.220Z,4.97
2023-03-06T18:43:15.420Z,3.67
2023-03-06T18:48:17.554Z,3.35
2023-03-06T18:53:20.404Z,5.63
2023-03-06T18:58:22.645Z,4.28
2023-03-06T19:03:25.736Z,3.63
2023-03-06T19:08:27.872Z,2.65
2023-03-06T19:13:30.497Z,3.35
2023-03-06T19:18:32.689Z,3.00
2023-03-06T19:23:34.777Z,4.22
2023-03-06T19:28:38.032Z,3.50
2023-03-06T19:33:40.899Z,2.78
2023-03-06T19:38:43.063Z,3.83
2023-03-06T19:43:45.253Z,3.40
2023-03-06T19:48:47.441Z,3.05
2023-03-06T19:53:49.538Z,2.38
2023-03-06T19:58:52.107Z,4.00
2023-03-06T20:03:58.895Z,2.70
2023-03-06T20:09:02.356Z,7.75
2023-03-06T20:14:05.651Z,5.20
2023-03-06T20:19:08.921Z,6.18
2023-03-06T20:24:16.894Z,4.10
2023-03-06T20:29:19.134Z,3.58
2023-03-06T20:34:21.524Z,4.28
2023-03-06T20:39:23.774Z,3.85
2023-03-06T20:44:26.017Z,2.33
2023-03-06T20:49:28.780Z,3.15
2023-03-06T20:54:30.899Z,3.35
2023-03-06T20:59:33.169Z,4.68
2023-03-06T21:04:35.608Z,3.92
2023-03-06T21:09:38.013Z,4.20
2023-03-06T21:14:40.319Z,5.25
2023-03-06T21:19:42.833Z,4.63
2023-03-06T21:24:45.318Z,5.00
2023-03-06T21:29:47.441Z,4.05
2023-03-06T21:34:51.336Z,4.88
2023-03-06T21:39:53.546Z,4.35
2023-03-06T21:44:55.689Z,3.47
2023-03-06T21:49:58.496Z,6.60
2023-03-06T21:55:00.660Z,4.05
2023-03-06T22:00:05.123Z,3.88
2023-03-06T22:05:12.751Z,3.70
2023-03-06T22:10:15.978Z,4.50
2023-03-06T22:15:18.210Z,7.22
2023-03-06T22:20:20.329Z,4.15
2023-03-06T22:25:22.387Z,6.28
2023-03-06T22:30:24.493Z,4.13
2023-03-06T22:35:26.872Z,3.70
2023-03-06T22:40:28.968Z,3.75
2023-03-06T22:45:34.652Z,3.83
2023-03-06T22:50:36.933Z,5.55
2023-03-06T22:55:39.034Z,5.60
2023-03-06T23:00:41.142Z,4.53
2023-03-06T23:05:43.388Z,5.93
2023-03-06T23:10:45.528Z,5.07
2023-03-06T23:16:07.132Z,5.60
2023-03-06T23:21:27.809Z,5.72
2023-03-06T23:26:48.847Z,4.38
2023-03-06T23:31:50.927Z,3.22
2023-03-06T23:36:53.020Z,3.13
2023-03-06T23:41:56.285Z,2.67
2023-03-06T23:46:58.412Z,4.45
2023-03-06T23:52:00.657Z,3.67
2023-03-06T23:57:02.765Z,3.78
